Home   Weather   Poland   Wroclaw   Past weeks
Flag for Poland

Past Weather in Wroclaw, Poland — Yesterday and Last 2 Weeks

Currently: 41 °F. Fog. (Weather station: Wroclaw Ii, Poland). See more current weather

Past Weather in Wroclaw — Graph

°F

Wroclaw Temperature Yesterday

Maximum temperature yesterday: 50 °F (at 2:30 pm)
Minimum temperature yesterday: 39 °F (at 10:30 pm)
Average temperature yesterday: 45 °F

High & Low Weather Summary for the Past Weeks

 TemperatureHumidityPressure
High63 °F (Apr 11, 12:30 pm)100% (Apr 5, 5:30 pm)30.33 "Hg (Apr 5, 5:30 pm)
Low30 °F (Apr 6, 6:00 am)33% (Apr 9, 2:00 pm)29.45 "Hg (Apr 5, 2:00 pm)
Average41 °F76%30.03 "Hg
* Reported Apr 4 9:00 pm — Apr 19 9:00 pm, Wroclaw. Weather by CustomWeather, © 2021

Note: Actual official high and low records may vary slightly from our data, if they occured in-between our weather recording intervals... More about our weather records

Wroclaw Weather History for the Previous 24 Hours

Scroll right to see more
 ConditionsComfort  
Time TempWeatherWind HumidityBarometerVisibility
9:00 pm
Mon, Apr 19
45 °FClear.6 mph93%30.01 "Hg10 mi
8:30 pm46 °FPassing clouds.3 mph100%30.01 "HgN/A
8:00 pm46 °FClear.6 mph93%30.01 "Hg10 mi
7:30 pm45 °FSunny.8 mph93%29.98 "Hg10 mi
7:00 pm48 °FSunny.10 mph87%29.98 "Hg10 mi
6:30 pm46 °FPassing clouds.8 mph100%29.98 "HgN/A
6:00 pm48 °FPassing clouds.8 mph94%30.01 "HgN/A
5:30 pm50 °FThundershowers. Scattered clouds.6 mph94%30.01 "HgN/A
5:00 pm50 °FThunderstorms. Partly sunny.15 mph88%30.01 "Hg2 mi
4:30 pm59 °FSprinkles. Broken clouds.5 mph63%30.01 "Hg5 mi
4:00 pm59 °FScattered clouds.6 mph55%30.01 "HgN/A
3:30 pm59 °FScattered clouds.6 mph59%30.01 "HgN/A
3:00 pm59 °FScattered clouds.5 mph59%30.01 "HgN/A
2:30 pm59 °FPartly sunny.6 mph59%30.04 "HgN/A
2:00 pm59 °FPartly sunny.6 mph63%30.04 "HgN/A
1:30 pm57 °FBroken clouds.7 mph67%30.04 "HgN/A
1:00 pm55 °FPartly sunny.8 mph67%30.04 "HgN/A
12:30 pm54 °FPartly sunny.9 mph72%30.07 "HgN/A
12:00 pm54 °FBroken clouds.12 mph72%30.07 "HgN/A
11:30 am54 °FBroken clouds.9 mph72%30.07 "HgN/A
11:00 am50 °FPartly sunny.9 mph76%30.07 "HgN/A
10:30 am50 °FPartly sunny.8 mph82%30.07 "HgN/A
10:00 am48 °FPartly sunny.7 mph87%30.09 "HgN/A
9:30 am46 °FPassing clouds.8 mph93%30.09 "Hg6 mi
9:00 am45 °FScattered clouds.8 mph93%30.09 "Hg4 mi
8:30 am43 °FBroken clouds.6 mph93%30.09 "Hg4 mi
8:00 am43 °FFog.3 mph93%30.09 "Hg3 mi
7:30 am41 °FFog.5 mph100%30.09 "Hg3 mi
7:00 am39 °FFog.6 mph100%30.07 "Hg3 mi
6:30 am41 °FFog.5 mph100%30.09 "Hg3 mi
6:00 am41 °FFog.5 mph100%30.09 "Hg3 mi
5:30 am41 °FFog.7 mph100%30.09 "Hg3 mi
5:00 am41 °FFog.6 mph93%30.09 "Hg2 mi
4:30 am39 °FFog.5 mph100%30.09 "Hg2 mi
4:00 am39 °FFog.2 mph100%30.09 "Hg2 mi
3:30 am41 °FFog.3 mph93%30.09 "Hg3 mi
3:00 am41 °FFog.1 mph100%30.09 "Hg3 mi
2:30 am41 °FFog.3 mph100%30.09 "Hg2 mi
2:00 am43 °FFog.2 mph93%30.09 "Hg3 mi
1:30 am43 °FFog.3 mph93%30.12 "Hg3 mi
1:00 am41 °FFog.5 mph100%30.12 "Hg2 mi
12:30 am41 °FFog.3 mph100%30.12 "Hg2 mi
12:00 am43 °FFog.2 mph93%30.12 "Hg3 mi
11:30 pm
Sun, Apr 18
41 °FFog.1 mph100%30.12 "Hg3 mi
11:00 pm41 °FFog.3 mph93%30.12 "Hg3 mi
10:30 pm39 °FFog.3 mph100%30.12 "Hg3 mi
10:00 pm45 °FClear.3 mph93%30.12 "Hg5 mi
Weather by CustomWeather, © 2021

See weather overview